Portada
METAR-TAF:

METAR-TAF

Aeroports :

Gwadar, Pakistan

latitud: 25-13-59N, longitud: 062-19-46E, altitud: 29 m

METAR: manca

Hora: 15:10 (10:10 UTC)

Pronòstic

L'informe es va fer fa 6 hores i 10 minuts, a les 04:00 UTC
Pronòstic vàlid del 22 a les 06 UTC al 23 a les 06 UTC
Vent 10 kt del Sud-Oest amb ràfegues de 20 kt
Visibilitat: 6000 m
Evolucionant progressivament
l' 22 a les 18 UTC al 22 a les 20 UTC
Vent 7 kt del Sud-Oest
Visibilitat: 4000 m
calitja
Temporalment
l' 23 a les 00 UTC al 23 a les 04 UTC
Vent 8 kt del Sud-Oest
Visibilitat: 2000 m
boirina

TAF: OPGD 220400Z 2206/2306 22010G20KT 6000 NSC BECMG 2218/2220 22007KT 4000 HZ NSC TEMPO 2300/2304 23008KT 2000 BR NSC

Observacions i pronòstics meteorològics de més de 4000 aeroports (METAR i TAF).

Les estacions disponibles són els punts grocs i vermells al mapa.

Posi el ratolí al punt desitjat per veure el nom de l'estació.

Feu clic per veure les observacions i els pronòstics meteorològics.

Per canviar el mapa: feu clic els botons verds amb una creu de color negre per apropar; al botó verd amb un guió per allunyar la imatge; o en les fletxes verdes per a mapes adjacents.


METAR-TAF: